createdAt,value
2018-11-06T00:00:56.103Z,58.28
2018-11-06T00:03:42.593Z,53.38
2018-11-06T00:06:12.722Z,53.55
2018-11-06T00:08:41.222Z,55.80
2018-11-06T00:11:13.583Z,57.00
2018-11-06T00:13:43.702Z,52.83
2018-11-06T00:16:12.397Z,58.15
2018-11-06T00:18:40.156Z,49.95
2018-11-06T00:21:08.721Z,53.08
2018-11-06T00:23:38.793Z,47.83
2018-11-06T00:26:08.894Z,58.40
2018-11-06T00:28:40.427Z,52.67
2018-11-06T00:31:09.019Z,50.65
2018-11-06T00:33:37.601Z,51.78
2018-11-06T00:36:06.878Z,52.08
2018-11-06T00:38:38.509Z,52.35
2018-11-06T00:41:07.141Z,49.08
2018-11-06T00:43:38.915Z,44.88
2018-11-06T00:46:09.713Z,49.67
2018-11-06T00:48:38.322Z,49.58
2018-11-06T00:51:08.709Z,43.28
2018-11-06T00:53:37.016Z,45.97
2018-11-06T00:56:05.590Z,48.38
2018-11-06T00:58:35.713Z,46.92
2018-11-06T01:01:06.417Z,56.28
2018-11-06T01:04:09.636Z,48.80
2018-11-06T01:06:41.165Z,55.95
2018-11-06T01:09:12.974Z,50.67
2018-11-06T01:11:43.841Z,48.97
2018-11-06T01:14:15.348Z,53.05
2018-11-06T01:16:45.592Z,58.05
2018-11-06T01:19:16.765Z,59.72
2018-11-06T01:21:46.911Z,53.67
2018-11-06T01:24:17.038Z,47.53
2018-11-06T01:26:47.424Z,50.00
2018-11-06T01:29:17.491Z,54.35
2018-11-06T01:31:46.076Z,56.78
2018-11-06T01:34:17.100Z,49.33
2018-11-06T01:36:47.145Z,52.97
2018-11-06T01:39:17.322Z,50.47
2018-11-06T01:41:46.015Z,51.17
2018-11-06T01:44:13.748Z,56.30
2018-11-06T01:46:43.830Z,53.15
2018-11-06T01:49:14.133Z,51.90
2018-11-06T01:51:45.804Z,52.22
2018-11-06T01:54:17.345Z,46.42
2018-11-06T01:56:47.382Z,49.00
2018-11-06T01:59:17.907Z,49.88
2018-11-06T02:01:48.918Z,51.03
2018-11-06T02:04:18.122Z,48.70
2018-11-06T02:06:49.726Z,44.20
2018-11-06T02:09:20.701Z,44.97
2018-11-06T02:11:50.732Z,49.72
2018-11-06T02:14:21.883Z,44.75
2018-11-06T02:16:53.319Z,38.45
2018-11-06T02:19:23.556Z,41.65
2018-11-06T02:21:53.728Z,38.47
2018-11-06T02:24:24.263Z,39.63
2018-11-06T02:26:53.866Z,37.70
2018-11-06T02:29:23.725Z,39.05
2018-11-06T02:31:53.839Z,38.80
2018-11-06T02:34:25.625Z,39.42
2018-11-06T02:36:57.137Z,39.75
2018-11-06T02:39:27.230Z,37.78
2018-11-06T02:41:57.297Z,38.75
2018-11-06T02:44:25.897Z,40.88
2018-11-06T02:46:54.459Z,42.85
2018-11-06T02:49:23.163Z,40.63
2018-11-06T02:51:51.724Z,37.42
2018-11-06T02:54:20.311Z,34.88
2018-11-06T02:56:49.075Z,42.15
2018-11-06T02:59:18.443Z,39.55
2018-11-06T03:01:47.821Z,40.28
2018-11-06T03:04:19.549Z,38.10
2018-11-06T03:06:49.608Z,35.17
2018-11-06T03:09:19.707Z,39.45
2018-11-06T03:11:51.535Z,34.05
2018-11-06T03:14:21.601Z,39.63
2018-11-06T03:16:50.312Z,32.40
2018-11-06T03:19:18.813Z,35.70
2018-11-06T03:21:48.869Z,34.80
2018-11-06T03:24:19.063Z,38.17
2018-11-06T03:26:49.203Z,36.22
2018-11-06T03:29:19.276Z,32.47
2018-11-06T03:31:48.614Z,33.72
2018-11-06T03:34:17.307Z,31.75
2018-11-06T03:36:47.314Z,37.72
2018-11-06T03:39:19.256Z,33.20
2018-11-06T03:41:47.896Z,35.45
2018-11-06T03:44:18.459Z,35.38
2018-11-06T03:46:48.613Z,40.58
2018-11-06T03:49:17.274Z,32.78
2018-11-06T03:51:47.434Z,34.45
2018-11-06T03:54:17.607Z,33.35
2018-11-06T03:56:47.657Z,31.48
2018-11-06T03:59:19.214Z,34.25
2018-11-06T04:01:47.798Z,30.30
2018-11-06T04:04:18.368Z,30.30
2018-11-06T04:06:49.820Z,30.42
2018-11-06T04:09:18.325Z,26.00
2018-11-06T04:11:49.912Z,31.87
2018-11-06T04:14:20.609Z,35.50
2018-11-06T04:16:49.126Z,30.70
2018-11-06T04:19:20.731Z,29.25
2018-11-06T04:21:50.809Z,32.03
2018-11-06T04:24:19.382Z,31.25
2018-11-06T04:26:47.929Z,30.45
2018-11-06T04:29:18.043Z,27.65
2018-11-06T04:31:48.194Z,31.20
2018-11-06T04:34:16.979Z,32.38
2018-11-06T04:36:45.884Z,29.05
2018-11-06T04:39:14.447Z,31.12
2018-11-06T04:41:45.961Z,29.08
2018-11-06T04:44:14.574Z,31.20
2018-11-06T04:46:43.143Z,28.15
2018-11-06T04:49:11.706Z,27.10
2018-11-06T04:51:43.149Z,32.15
2018-11-06T04:54:13.201Z,28.65
2018-11-06T04:56:44.727Z,25.80
2018-11-06T04:59:13.343Z,24.65
2018-11-06T05:01:41.283Z,27.30
2018-11-06T05:04:13.454Z,26.35
2018-11-06T05:06:43.549Z,25.80
2018-11-06T05:09:12.173Z,29.60
2018-11-06T05:11:44.205Z,25.12
2018-11-06T05:14:14.260Z,24.75
2018-11-06T05:16:42.745Z,23.10
2018-11-06T05:19:10.215Z,25.95
2018-11-06T05:21:40.303Z,28.73
2018-11-06T05:24:08.889Z,30.02
2018-11-06T05:26:40.602Z,26.87
2018-11-06T05:29:10.676Z,25.23
2018-11-06T05:31:40.904Z,24.55
2018-11-06T05:34:11.227Z,25.73
2018-11-06T05:36:39.917Z,27.80
2018-11-06T05:39:13.209Z,27.48
2018-11-06T05:41:43.173Z,25.37
2018-11-06T05:44:14.669Z,21.92
2018-11-06T05:46:44.674Z,24.48
2018-11-06T05:49:13.495Z,26.48
2018-11-06T05:51:43.608Z,29.00
2018-11-06T05:54:15.142Z,25.15
2018-11-06T05:56:43.708Z,25.65
2018-11-06T05:59:13.831Z,30.15
2018-11-06T06:01:43.917Z,27.40
2018-11-06T06:04:14.004Z,30.40
2018-11-06T06:06:44.150Z,26.00
2018-11-06T06:09:12.780Z,27.35
2018-11-06T06:11:44.334Z,27.35
2018-11-06T06:14:13.561Z,29.65
2018-11-06T06:16:42.161Z,29.48
2018-11-06T06:19:12.187Z,30.15
2018-11-06T06:21:40.814Z,30.98
2018-11-06T06:24:09.317Z,26.85
2018-11-06T06:26:38.409Z,29.27
2018-11-06T06:29:08.604Z,29.20
2018-11-06T06:31:38.836Z,31.60
2018-11-06T06:34:08.980Z,30.77
2018-11-06T06:36:37.548Z,30.30
2018-11-06T06:39:09.909Z,31.62
2018-11-06T06:41:38.695Z,29.15
2018-11-06T06:44:09.285Z,32.10
2018-11-06T06:46:39.458Z,28.38
2018-11-06T06:49:08.850Z,30.33
2018-11-06T06:51:37.426Z,29.98
2018-11-06T06:54:07.537Z,32.45
2018-11-06T06:56:37.677Z,29.17
2018-11-06T06:59:08.100Z,27.95
2018-11-06T07:01:36.768Z,31.98
2018-11-06T07:04:07.030Z,29.37
2018-11-06T07:06:36.220Z,26.48
2018-11-06T07:09:06.277Z,26.75
2018-11-06T07:11:37.725Z,28.42
2018-11-06T07:14:09.216Z,26.75
2018-11-06T07:16:40.882Z,30.10
2018-11-06T07:19:11.392Z,24.50
2018-11-06T07:21:41.536Z,26.12
2018-11-06T07:24:10.122Z,25.77
2018-11-06T07:26:40.678Z,24.55
2018-11-06T07:29:12.163Z,26.73
2018-11-06T07:31:43.237Z,26.85
2018-11-06T07:34:13.538Z,25.98
2018-11-06T07:36:43.651Z,28.55
2018-11-06T07:39:13.502Z,25.88
2018-11-06T07:41:43.688Z,28.23
2018-11-06T07:44:15.288Z,21.60
2018-11-06T07:46:45.321Z,29.45
2018-11-06T07:49:15.724Z,24.00
2018-11-06T07:51:46.455Z,24.67
2018-11-06T07:54:18.190Z,26.58
2018-11-06T07:56:47.811Z,23.42
2018-11-06T07:59:16.282Z,24.92
2018-11-06T08:01:47.920Z,23.75
2018-11-06T08:04:18.075Z,28.65
2018-11-06T08:06:48.155Z,22.15
2018-11-06T08:09:19.771Z,25.42
2018-11-06T08:11:49.766Z,29.80
2018-11-06T08:14:19.846Z,28.83
2018-11-06T08:16:51.346Z,26.67
2018-11-06T08:19:21.460Z,21.55
2018-11-06T08:21:49.264Z,27.45
2018-11-06T08:24:20.125Z,23.12
2018-11-06T08:26:50.401Z,29.52
2018-11-06T08:29:18.903Z,24.95
2018-11-06T08:31:49.452Z,25.92
2018-11-06T08:34:20.669Z,26.75
2018-11-06T08:36:50.824Z,23.20
2018-11-06T08:39:19.087Z,23.60
2018-11-06T08:41:49.129Z,22.73
2018-11-06T08:44:20.685Z,25.83
2018-11-06T08:46:50.837Z,24.27
2018-11-06T08:49:20.879Z,26.37
2018-11-06T08:51:49.480Z,24.30
2018-11-06T08:54:19.649Z,22.42
2018-11-06T08:56:51.073Z,27.27
2018-11-06T08:59:21.601Z,19.67
2018-11-06T09:01:52.202Z,20.83
2018-11-06T09:04:22.222Z,23.42
2018-11-06T09:06:53.253Z,22.08
2018-11-06T09:09:21.764Z,20.77
2018-11-06T09:11:51.865Z,23.02
2018-11-06T09:14:21.467Z,21.23
2018-11-06T09:16:51.607Z,20.17
2018-11-06T09:19:20.189Z,20.73
2018-11-06T09:21:52.861Z,23.12
2018-11-06T09:24:21.558Z,20.05
2018-11-06T09:26:51.651Z,19.25
2018-11-06T09:29:20.261Z,21.85
2018-11-06T09:31:50.406Z,18.48
2018-11-06T09:34:18.938Z,22.30
2018-11-06T09:36:47.520Z,21.65
2018-11-06T09:39:17.753Z,18.90
2018-11-06T09:41:46.850Z,17.90
2018-11-06T09:44:17.735Z,19.17
2018-11-06T09:46:48.327Z,19.40
2018-11-06T09:49:19.909Z,18.10
2018-11-06T09:51:49.096Z,18.80
2018-11-06T09:54:17.659Z,20.33
2018-11-06T09:56:47.652Z,19.65
2018-11-06T09:59:16.767Z,18.42
2018-11-06T10:01:45.462Z,18.85
2018-11-06T10:04:15.554Z,18.70
2018-11-06T10:06:44.284Z,18.02
2018-11-06T10:09:14.593Z,17.08
2018-11-06T10:11:44.583Z,18.85
2018-11-06T10:14:15.997Z,19.27
2018-11-06T10:16:44.528Z,18.70
2018-11-06T10:19:13.012Z,21.05
2018-11-06T10:21:44.596Z,15.27
2018-11-06T10:24:14.824Z,18.20
2018-11-06T10:26:44.908Z,16.23
2018-11-06T10:29:14.882Z,17.80
2018-11-06T10:31:44.942Z,16.92
2018-11-06T10:34:15.056Z,17.05
2018-11-06T10:36:43.622Z,19.40
2018-11-06T10:39:15.973Z,18.70
2018-11-06T10:41:44.496Z,18.85
2018-11-06T10:44:12.977Z,16.05
2018-11-06T10:46:42.991Z,16.02
2018-11-06T10:49:13.460Z,19.10
2018-11-06T10:51:44.092Z,16.25
2018-11-06T10:54:14.169Z,14.98
2018-11-06T10:56:44.159Z,15.27
2018-11-06T10:59:12.744Z,17.87
2018-11-06T11:01:58.839Z,16.65
2018-11-06T11:04:29.624Z,15.18
2018-11-06T11:06:58.074Z,17.60
2018-11-06T11:09:28.642Z,14.45
2018-11-06T11:11:59.234Z,15.07
2018-11-06T11:14:29.253Z,17.00
2018-11-06T11:16:58.333Z,16.23
2018-11-06T11:19:28.396Z,16.42
2018-11-06T11:21:58.412Z,14.38
2018-11-06T11:24:26.935Z,15.90
2018-11-06T11:26:55.523Z,20.52
2018-11-06T11:29:25.541Z,18.87
2018-11-06T11:31:59.130Z,15.25
2018-11-06T11:34:29.132Z,16.90
2018-11-06T11:36:59.176Z,16.67
2018-11-06T11:39:29.498Z,15.45
2018-11-06T11:41:57.978Z,16.85
2018-11-06T11:44:26.580Z,17.10
2018-11-06T11:46:55.845Z,16.17
2018-11-06T11:49:25.895Z,15.00
2018-11-06T11:51:54.461Z,16.42
2018-11-06T11:54:24.539Z,18.15
2018-11-06T11:56:53.082Z,19.80
2018-11-06T11:59:23.110Z,19.58
2018-11-06T12:01:52.192Z,18.92
2018-11-06T12:04:22.803Z,17.98
2018-11-06T12:06:51.381Z,19.48
2018-11-06T12:09:20.004Z,22.17
2018-11-06T12:11:50.214Z,21.10
2018-11-06T12:14:22.637Z,18.27
2018-11-06T12:16:52.885Z,21.83
2018-11-06T12:19:21.468Z,23.55
2018-11-06T12:21:50.493Z,20.55
2018-11-06T12:24:20.666Z,26.30
2018-11-06T12:26:50.703Z,22.70
2018-11-06T12:29:20.815Z,22.13
2018-11-06T12:31:49.333Z,22.50
2018-11-06T12:34:17.906Z,22.55
2018-11-06T12:36:48.007Z,25.05
2018-11-06T12:39:16.610Z,26.62
2018-11-06T12:41:45.188Z,25.12
2018-11-06T12:44:13.759Z,25.58
2018-11-06T12:46:43.893Z,26.52
2018-11-06T12:49:12.571Z,26.05
2018-11-06T12:51:41.653Z,24.98
2018-11-06T12:54:12.418Z,23.85
2018-11-06T12:56:42.417Z,23.35
2018-11-06T12:59:12.463Z,22.75
2018-11-06T13:01:41.003Z,17.95
2018-11-06T13:04:11.028Z,25.30
2018-11-06T13:06:39.522Z,20.17
2018-11-06T13:09:11.908Z,20.90
2018-11-06T13:11:41.943Z,21.50
2018-11-06T13:14:10.981Z,19.90
2018-11-06T13:16:40.396Z,19.87
2018-11-06T13:19:10.397Z,19.50
2018-11-06T13:21:40.426Z,16.23
2018-11-06T13:24:10.541Z,16.55
2018-11-06T13:26:39.152Z,18.90
2018-11-06T13:29:09.380Z,14.65
2018-11-06T13:31:38.763Z,17.40
2018-11-06T13:34:07.245Z,18.50
2018-11-06T13:36:37.367Z,16.55
2018-11-06T13:39:09.860Z,14.50
2018-11-06T13:41:39.957Z,15.10
2018-11-06T13:44:09.409Z,13.25
2018-11-06T13:46:39.213Z,13.75
2018-11-06T13:49:09.199Z,13.05
2018-11-06T13:51:39.309Z,14.50
2018-11-06T13:54:09.439Z,14.65
2018-11-06T13:56:38.419Z,12.52
2018-11-06T13:59:11.381Z,15.73
2018-11-06T14:01:40.499Z,11.27
2018-11-06T14:04:09.707Z,10.95
2018-11-06T14:06:39.819Z,14.32
2018-11-06T14:09:10.651Z,12.35
2018-11-06T14:11:39.213Z,13.40
2018-11-06T14:14:08.512Z,14.55
2018-11-06T14:16:39.260Z,15.27
2018-11-06T14:19:07.847Z,14.10
2018-11-06T14:21:37.860Z,11.60
2018-11-06T14:24:06.428Z,15.38
2018-11-06T14:26:34.908Z,13.38
2018-11-06T14:29:03.416Z,21.02
2018-11-06T14:31:35.063Z,15.30
2018-11-06T14:34:03.550Z,11.85
2018-11-06T14:36:33.543Z,16.08
2018-11-06T14:39:03.575Z,14.68
2018-11-06T14:41:33.576Z,16.95
2018-11-06T14:44:03.579Z,12.75
2018-11-06T14:46:34.206Z,14.93
2018-11-06T14:49:02.983Z,12.45
2018-11-06T14:51:34.309Z,12.35
2018-11-06T14:54:04.357Z,13.65
2018-11-06T14:56:34.416Z,10.73
2018-11-06T14:59:04.463Z,18.95
2018-11-06T15:01:33.019Z,12.35
2018-11-06T15:04:04.455Z,16.48
2018-11-06T15:06:32.945Z,17.23
2018-11-06T15:09:03.049Z,16.12
2018-11-06T15:11:32.752Z,16.12
2018-11-06T15:14:04.281Z,17.37
2018-11-06T15:16:32.785Z,18.67
2018-11-06T15:19:02.829Z,13.77
2018-11-06T15:21:34.449Z,12.48
2018-11-06T15:24:02.966Z,15.77
2018-11-06T15:26:31.531Z,19.75
2018-11-06T15:29:02.069Z,17.45
2018-11-06T15:31:30.631Z,12.85
2018-11-06T15:34:02.113Z,16.77
2018-11-06T15:36:30.589Z,16.92
2018-11-06T15:38:59.143Z,15.43
2018-11-06T15:41:28.801Z,14.98
2018-11-06T15:43:57.238Z,14.25
2018-11-06T15:46:27.767Z,13.57
2018-11-06T15:48:56.300Z,14.77
2018-11-06T15:51:24.744Z,15.25
2018-11-06T15:53:54.762Z,13.85
2018-11-06T15:56:24.688Z,13.30
2018-11-06T15:58:54.120Z,12.77
2018-11-06T16:01:22.664Z,15.38
2018-11-06T16:03:50.396Z,11.18
2018-11-06T16:06:21.904Z,13.68
2018-11-06T16:08:51.466Z,13.90
2018-11-06T16:11:19.963Z,13.25
2018-11-06T16:13:48.654Z,11.65
2018-11-06T16:16:17.228Z,16.42
2018-11-06T16:18:47.293Z,12.43
2018-11-06T16:21:17.260Z,12.95
2018-11-06T16:23:45.826Z,14.23
2018-11-06T16:26:14.329Z,15.13
2018-11-06T16:28:43.425Z,15.18
2018-11-06T16:31:13.544Z,13.80
2018-11-06T16:33:42.514Z,17.15
2018-11-06T16:36:12.658Z,13.68
2018-11-06T16:38:42.674Z,19.70
2018-11-06T16:41:11.232Z,14.60
2018-11-06T16:43:40.327Z,14.40
2018-11-06T16:46:08.935Z,15.38
2018-11-06T16:48:39.012Z,15.85
2018-11-06T16:51:07.530Z,16.60
2018-11-06T16:53:36.013Z,16.42
2018-11-06T16:56:06.109Z,12.88
2018-11-06T16:58:34.711Z,12.37
2018-11-06T17:01:06.409Z,17.52
2018-11-06T17:03:34.749Z,15.02
2018-11-06T17:06:04.775Z,12.43
2018-11-06T17:08:33.344Z,15.00
2018-11-06T17:11:04.823Z,11.65
2018-11-06T17:13:33.296Z,10.73
2018-11-06T17:16:01.842Z,13.48
2018-11-06T17:18:31.876Z,13.38
2018-11-06T17:21:04.456Z,14.68
2018-11-06T17:23:34.496Z,13.20
2018-11-06T17:26:04.598Z,16.30
2018-11-06T17:28:36.054Z,9.70
2018-11-06T17:31:06.083Z,13.15
2018-11-06T17:33:34.618Z,12.82
2018-11-06T17:36:04.617Z,13.15
2018-11-06T17:38:33.120Z,15.50
2018-11-06T17:41:01.698Z,16.98
2018-11-06T17:43:31.729Z,11.90
2018-11-06T17:46:01.839Z,15.63
2018-11-06T17:48:30.950Z,16.27
2018-11-06T17:50:59.515Z,15.32
2018-11-06T17:53:29.559Z,16.62
2018-11-06T17:55:58.111Z,15.40
2018-11-06T17:58:29.854Z,12.75
2018-11-06T18:00:59.919Z,18.80
2018-11-06T18:03:29.811Z,17.75
2018-11-06T18:05:59.900Z,17.80
2018-11-06T18:08:28.603Z,13.88
2018-11-06T18:11:00.110Z,15.07
2018-11-06T18:13:30.302Z,18.92
2018-11-06T18:16:00.621Z,13.35
2018-11-06T18:18:29.186Z,14.80
2018-11-06T18:20:57.688Z,13.45
2018-11-06T18:23:27.756Z,18.95
2018-11-06T18:25:56.323Z,16.08
2018-11-06T18:28:26.280Z,15.70
2018-11-06T18:30:56.322Z,13.90
2018-11-06T18:33:24.886Z,14.90
2018-11-06T18:35:56.392Z,16.67
2018-11-06T18:38:25.090Z,17.77
2018-11-06T18:40:53.501Z,16.60
2018-11-06T18:43:22.193Z,19.55
2018-11-06T18:45:53.952Z,16.30
2018-11-06T18:48:23.958Z,15.20
2018-11-06T18:50:54.198Z,18.50
2018-11-06T18:53:22.894Z,15.00
2018-11-06T18:55:51.376Z,17.02
2018-11-06T18:58:22.897Z,16.52
2018-11-06T19:00:54.482Z,15.95
2018-11-06T19:03:24.687Z,15.43
2018-11-06T19:05:54.697Z,16.48
2018-11-06T19:08:24.234Z,18.20
2018-11-06T19:10:52.774Z,14.13
2018-11-06T19:13:22.671Z,16.90
2018-11-06T19:15:51.274Z,17.55
2018-11-06T19:18:19.856Z,14.35
2018-11-06T19:20:51.428Z,19.17
2018-11-06T19:23:21.729Z,19.73
2018-11-06T19:25:51.766Z,15.18
2018-11-06T19:28:21.803Z,17.50
2018-11-06T19:30:50.351Z,16.17
2018-11-06T19:33:18.948Z,16.92
2018-11-06T19:35:49.052Z,17.70
2018-11-06T19:38:19.090Z,19.35
2018-11-06T19:40:50.738Z,20.12
2018-11-06T19:43:20.862Z,20.27
2018-11-06T19:45:49.548Z,19.25
2018-11-06T19:48:21.036Z,19.75
2018-11-06T19:50:50.986Z,18.50
2018-11-06T19:53:21.125Z,18.55
2018-11-06T19:55:52.515Z,19.95
2018-11-06T19:58:22.699Z,19.27
2018-11-06T20:00:52.766Z,20.40
2018-11-06T20:03:23.706Z,20.55
2018-11-06T20:05:55.176Z,17.23
2018-11-06T20:08:23.680Z,16.62
2018-11-06T20:10:53.775Z,18.95
2018-11-06T20:13:21.773Z,19.73
2018-11-06T20:15:49.585Z,16.70
2018-11-06T20:18:19.456Z,17.87
2018-11-06T20:20:48.655Z,18.08
2018-11-06T20:23:18.987Z,14.13
2018-11-06T20:25:48.956Z,19.80
2018-11-06T20:28:17.462Z,19.42
2018-11-06T20:30:45.967Z,22.62
2018-11-06T20:33:14.975Z,18.25
2018-11-06T20:35:46.449Z,18.12
2018-11-06T20:38:14.771Z,16.77
2018-11-06T20:40:46.512Z,17.90
2018-11-06T20:43:15.160Z,19.37
2018-11-06T20:45:43.904Z,19.77
2018-11-06T20:48:12.467Z,22.83
2018-11-06T20:50:42.608Z,18.85
2018-11-06T20:53:11.352Z,15.93
2018-11-06T20:55:39.765Z,19.10
2018-11-06T20:58:09.695Z,18.75
2018-11-06T21:00:41.420Z,20.15
2018-11-06T21:03:10.038Z,16.30
2018-11-06T21:05:38.643Z,20.88
2018-11-06T21:08:10.714Z,23.90
2018-11-06T21:10:40.773Z,19.35
2018-11-06T21:13:10.958Z,19.17
2018-11-06T21:15:38.649Z,19.35
2018-11-06T21:18:08.816Z,21.10
2018-11-06T21:20:38.918Z,19.10
2018-11-06T21:23:10.690Z,19.33
2018-11-06T21:25:40.927Z,20.70
2018-11-06T21:28:10.895Z,21.65
2018-11-06T21:30:41.109Z,20.20
2018-11-06T21:33:11.123Z,18.60
2018-11-06T21:35:41.229Z,18.65
2018-11-06T21:38:10.266Z,17.40
2018-11-06T21:40:40.241Z,18.00
2018-11-06T21:43:08.756Z,16.65
2018-11-06T21:45:37.476Z,16.73
2018-11-06T21:48:06.723Z,18.20
2018-11-06T21:50:36.317Z,16.70
2018-11-06T21:53:06.445Z,16.98
2018-11-06T21:55:37.313Z,19.30
2018-11-06T21:58:05.786Z,15.45
2018-11-06T22:00:37.288Z,17.02
2018-11-06T22:03:07.653Z,18.95
2018-11-06T22:05:37.681Z,17.02
2018-11-06T22:08:07.907Z,15.15
2018-11-06T22:10:39.351Z,18.70
2018-11-06T22:13:11.042Z,20.60
2018-11-06T22:15:40.976Z,18.20
2018-11-06T22:18:09.503Z,19.52
2018-11-06T22:20:37.981Z,14.57
2018-11-06T22:23:07.988Z,13.77
2018-11-06T22:25:38.056Z,14.45
2018-11-06T22:28:08.095Z,14.13
2018-11-06T22:30:36.693Z,12.18
2018-11-06T22:33:06.802Z,11.95
2018-11-06T22:35:38.386Z,16.95
2018-11-06T22:38:08.486Z,12.57
2018-11-06T22:40:38.437Z,14.15
2018-11-06T22:43:07.539Z,12.88
2018-11-06T22:45:39.317Z,15.85
2018-11-06T22:48:08.448Z,13.57
2018-11-06T22:50:38.595Z,15.70
2018-11-06T22:53:10.228Z,16.45
2018-11-06T22:55:40.232Z,12.10
2018-11-06T22:58:08.846Z,15.35
2018-11-06T23:00:56.669Z,18.12
2018-11-06T23:03:28.260Z,14.15
2018-11-06T23:05:58.448Z,14.50
2018-11-06T23:08:30.801Z,13.77
2018-11-06T23:10:59.396Z,13.90
2018-11-06T23:13:29.622Z,14.38
2018-11-06T23:15:59.693Z,17.05
2018-11-06T23:18:28.310Z,13.10
2018-11-06T23:20:58.426Z,12.32
2018-11-06T23:23:26.199Z,14.63
2018-11-06T23:25:56.428Z,11.82
2018-11-06T23:28:27.850Z,12.80
2018-11-06T23:30:56.364Z,14.98
2018-11-06T23:33:28.337Z,13.38
2018-11-06T23:35:56.889Z,13.50
2018-11-06T23:38:26.958Z,13.98
2018-11-06T23:40:55.489Z,13.45
2018-11-06T23:43:23.990Z,15.43
2018-11-06T23:45:55.519Z,12.25
2018-11-06T23:48:25.640Z,12.88
2018-11-06T23:50:55.741Z,15.32
2018-11-06T23:53:27.197Z,11.35
2018-11-06T23:55:55.692Z,10.45
2018-11-06T23:58:23.411Z,13.18
